sensor_id;sensor_type;location;lat;lon;timestamp;P1;durP1;ratioP1;P2;durP2;ratioP2
23402;SDS011;11874;48.228;11.684;2023-12-20T00:00:06;2.97;;;1.60;;
23402;SDS011;11874;48.228;11.684;2023-12-20T00:02:35;2.88;;;1.80;;
23402;SDS011;11874;48.228;11.684;2023-12-20T00:05:04;1.67;;;1.23;;
23402;SDS011;11874;48.228;11.684;2023-12-20T00:07:33;1.70;;;1.30;;
23402;SDS011;11874;48.228;11.684;2023-12-20T00:10:02;1.67;;;1.27;;
23402;SDS011;11874;48.228;11.684;2023-12-20T00:12:32;2.22;;;1.58;;
23402;SDS011;11874;48.228;11.684;2023-12-20T00:15:00;1.63;;;1.40;;
23402;SDS011;11874;48.228;11.684;2023-12-20T00:17:28;2.22;;;1.50;;
23402;SDS011;11874;48.228;11.684;2023-12-20T00:19:56;2.15;;;1.50;;
23402;SDS011;11874;48.228;11.684;2023-12-20T00:22:24;1.30;;;1.17;;
23402;SDS011;11874;48.228;11.684;2023-12-20T00:24:52;2.40;;;1.63;;
23402;SDS011;11874;48.228;11.684;2023-12-20T00:27:20;3.13;;;1.40;;
23402;SDS011;11874;48.228;11.684;2023-12-20T00:29:50;2.30;;;1.45;;
23402;SDS011;11874;48.228;11.684;2023-12-20T00:32:19;5.82;;;1.90;;
23402;SDS011;11874;48.228;11.684;2023-12-20T00:34:47;3.42;;;1.70;;
23402;SDS011;11874;48.228;11.684;2023-12-20T00:37:15;4.07;;;1.70;;
23402;SDS011;11874;48.228;11.684;2023-12-20T00:39:44;3.38;;;1.80;;
23402;SDS011;11874;48.228;11.684;2023-12-20T00:42:12;2.25;;;1.40;;
23402;SDS011;11874;48.228;11.684;2023-12-20T00:44:40;2.65;;;1.73;;
23402;SDS011;11874;48.228;11.684;2023-12-20T00:47:11;1.60;;;1.42;;
23402;SDS011;11874;48.228;11.684;2023-12-20T00:49:39;1.98;;;1.60;;
23402;SDS011;11874;48.228;11.684;2023-12-20T00:52:08;2.75;;;1.90;;
23402;SDS011;11874;48.228;11.684;2023-12-20T00:54:37;4.15;;;2.08;;
23402;SDS011;11874;48.228;11.684;2023-12-20T00:57:06;2.97;;;2.00;;
23402;SDS011;11874;48.228;11.684;2023-12-20T00:59:34;2.33;;;1.88;;
23402;SDS011;11874;48.228;11.684;2023-12-20T01:02:02;2.22;;;1.58;;
23402;SDS011;11874;48.228;11.684;2023-12-20T01:04:32;2.80;;;1.70;;
23402;SDS011;11874;48.228;11.684;2023-12-20T01:07:00;3.13;;;1.67;;
23402;SDS011;11874;48.228;11.684;2023-12-20T01:09:29;2.72;;;1.40;;
23402;SDS011;11874;48.228;11.684;2023-12-20T01:11:57;1.88;;;1.55;;
23402;SDS011;11874;48.228;11.684;2023-12-20T01:14:25;1.45;;;1.30;;
23402;SDS011;11874;48.228;11.684;2023-12-20T01:16:55;1.70;;;1.38;;
23402;SDS011;11874;48.228;11.684;2023-12-20T01:19:25;1.88;;;1.30;;
23402;SDS011;11874;48.228;11.684;2023-12-20T01:21:57;2.33;;;1.33;;
23402;SDS011;11874;48.228;11.684;2023-12-20T01:24:26;2.00;;;1.45;;
23402;SDS011;11874;48.228;11.684;2023-12-20T01:26:54;1.83;;;1.15;;
23402;SDS011;11874;48.228;11.684;2023-12-20T01:29:22;3.30;;;1.60;;
23402;SDS011;11874;48.228;11.684;2023-12-20T01:31:50;2.38;;;1.20;;
23402;SDS011;11874;48.228;11.684;2023-12-20T01:34:18;2.13;;;1.35;;
23402;SDS011;11874;48.228;11.684;2023-12-20T01:36:46;2.30;;;1.30;;
23402;SDS011;11874;48.228;11.684;2023-12-20T01:39:15;1.48;;;1.10;;
23402;SDS011;11874;48.228;11.684;2023-12-20T01:41:55;1.38;;;0.95;;
23402;SDS011;11874;48.228;11.684;2023-12-20T01:44:23;2.30;;;1.05;;
23402;SDS011;11874;48.228;11.684;2023-12-20T01:46:51;1.65;;;1.05;;
23402;SDS011;11874;48.228;11.684;2023-12-20T01:49:23;1.60;;;1.15;;
23402;SDS011;11874;48.228;11.684;2023-12-20T01:51:52;1.58;;;1.10;;
23402;SDS011;11874;48.228;11.684;2023-12-20T01:54:22;1.25;;;1.00;;
23402;SDS011;11874;48.228;11.684;2023-12-20T01:56:50;4.25;;;1.27;;
23402;SDS011;11874;48.228;11.684;2023-12-20T01:59:21;1.73;;;1.13;;
23402;SDS011;11874;48.228;11.684;2023-12-20T02:01:49;2.22;;;1.20;;
23402;SDS011;11874;48.228;11.684;2023-12-20T02:04:18;2.75;;;1.05;;
23402;SDS011;11874;48.228;11.684;2023-12-20T02:06:46;1.83;;;1.08;;
23402;SDS011;11874;48.228;11.684;2023-12-20T02:09:15;1.73;;;1.15;;
23402;SDS011;11874;48.228;11.684;2023-12-20T02:11:44;1.58;;;1.27;;
23402;SDS011;11874;48.228;11.684;2023-12-20T02:14:12;1.00;;;0.90;;
23402;SDS011;11874;48.228;11.684;2023-12-20T02:16:41;1.10;;;0.90;;
23402;SDS011;11874;48.228;11.684;2023-12-20T02:19:11;0.95;;;0.85;;
23402;SDS011;11874;48.228;11.684;2023-12-20T02:24:11;1.17;;;0.98;;
23402;SDS011;11874;48.228;11.684;2023-12-20T02:26:39;1.55;;;0.93;;
23402;SDS011;11874;48.228;11.684;2023-12-20T02:29:11;2.65;;;1.00;;
23402;SDS011;11874;48.228;11.684;2023-12-20T02:31:39;1.23;;;1.00;;
23402;SDS011;11874;48.228;11.684;2023-12-20T02:34:07;0.73;;;0.70;;
23402;SDS011;11874;48.228;11.684;2023-12-20T02:36:38;0.80;;;0.80;;
23402;SDS011;11874;48.228;11.684;2023-12-20T02:39:08;0.80;;;0.77;;
23402;SDS011;11874;48.228;11.684;2023-12-20T02:41:36;1.00;;;0.88;;
23402;SDS011;11874;48.228;11.684;2023-12-20T02:44:04;1.02;;;0.98;;
23402;SDS011;11874;48.228;11.684;2023-12-20T02:46:32;1.15;;;0.82;;
23402;SDS011;11874;48.228;11.684;2023-12-20T02:48:59;0.93;;;0.70;;
23402;SDS011;11874;48.228;11.684;2023-12-20T02:51:28;1.45;;;0.88;;
23402;SDS011;11874;48.228;11.684;2023-12-20T02:53:56;0.82;;;0.70;;
23402;SDS011;11874;48.228;11.684;2023-12-20T02:56:25;1.35;;;0.90;;
23402;SDS011;11874;48.228;11.684;2023-12-20T02:58:56;1.10;;;0.85;;
23402;SDS011;11874;48.228;11.684;2023-12-20T03:01:24;2.17;;;1.00;;
23402;SDS011;11874;48.228;11.684;2023-12-20T03:03:52;1.23;;;0.85;;
23402;SDS011;11874;48.228;11.684;2023-12-20T03:06:21;1.00;;;0.73;;
23402;SDS011;11874;48.228;11.684;2023-12-20T03:08:49;1.30;;;0.73;;
23402;SDS011;11874;48.228;11.684;2023-12-20T03:11:17;1.80;;;0.63;;
23402;SDS011;11874;48.228;11.684;2023-12-20T03:13:46;1.83;;;0.75;;
23402;SDS011;11874;48.228;11.684;2023-12-20T03:16:14;0.82;;;0.70;;
23402;SDS011;11874;48.228;11.684;2023-12-20T03:18:43;0.98;;;0.80;;
23402;SDS011;11874;48.228;11.684;2023-12-20T03:21:11;1.10;;;0.80;;
23402;SDS011;11874;48.228;11.684;2023-12-20T03:23:39;1.17;;;0.65;;
23402;SDS011;11874;48.228;11.684;2023-12-20T03:26:08;0.95;;;0.70;;
23402;SDS011;11874;48.228;11.684;2023-12-20T03:28:36;0.57;;;0.57;;
23402;SDS011;11874;48.228;11.684;2023-12-20T03:31:08;0.60;;;0.60;;
23402;SDS011;11874;48.228;11.684;2023-12-20T03:33:37;0.73;;;0.68;;
23402;SDS011;11874;48.228;11.684;2023-12-20T03:36:05;1.23;;;0.50;;
23402;SDS011;11874;48.228;11.684;2023-12-20T03:38:33;0.50;;;0.50;;
23402;SDS011;11874;48.228;11.684;2023-12-20T03:41:02;0.70;;;0.68;;
23402;SDS011;11874;48.228;11.684;2023-12-20T03:43:30;0.73;;;0.50;;
23402;SDS011;11874;48.228;11.684;2023-12-20T03:45:58;1.05;;;0.55;;
23402;SDS011;11874;48.228;11.684;2023-12-20T03:48:28;0.63;;;0.50;;
23402;SDS011;11874;48.228;11.684;2023-12-20T03:50:56;0.45;;;0.45;;
23402;SDS011;11874;48.228;11.684;2023-12-20T03:53:24;1.42;;;0.60;;
23402;SDS011;11874;48.228;11.684;2023-12-20T03:55:52;1.02;;;0.60;;
23402;SDS011;11874;48.228;11.684;2023-12-20T03:58:20;0.63;;;0.60;;
23402;SDS011;11874;48.228;11.684;2023-12-20T04:00:49;0.82;;;0.75;;
23402;SDS011;11874;48.228;11.684;2023-12-20T04:03:17;0.55;;;0.50;;
23402;SDS011;11874;48.228;11.684;2023-12-20T04:05:46;0.93;;;0.60;;
23402;SDS011;11874;48.228;11.684;2023-12-20T04:08:14;1.98;;;0.57;;
23402;SDS011;11874;48.228;11.684;2023-12-20T04:10:42;0.68;;;0.60;;
23402;SDS011;11874;48.228;11.684;2023-12-20T04:13:10;0.82;;;0.50;;
23402;SDS011;11874;48.228;11.684;2023-12-20T04:15:38;0.93;;;0.70;;
23402;SDS011;11874;48.228;11.684;2023-12-20T04:18:07;1.45;;;0.80;;
23402;SDS011;11874;48.228;11.684;2023-12-20T04:20:35;0.80;;;0.73;;
23402;SDS011;11874;48.228;11.684;2023-12-20T04:23:06;0.90;;;0.77;;
23402;SDS011;11874;48.228;11.684;2023-12-20T04:25:36;2.35;;;1.02;;
23402;SDS011;11874;48.228;11.684;2023-12-20T04:28:04;1.52;;;1.02;;
23402;SDS011;11874;48.228;11.684;2023-12-20T04:30:33;1.10;;;1.00;;
23402;SDS011;11874;48.228;11.684;2023-12-20T04:33:02;0.93;;;0.80;;
23402;SDS011;11874;48.228;11.684;2023-12-20T04:35:31;1.95;;;1.02;;
23402;SDS011;11874;48.228;11.684;2023-12-20T04:38:00;1.98;;;1.15;;
23402;SDS011;11874;48.228;11.684;2023-12-20T04:40:30;1.25;;;0.90;;
23402;SDS011;11874;48.228;11.684;2023-12-20T04:42:58;1.40;;;0.85;;
23402;SDS011;11874;48.228;11.684;2023-12-20T04:45:26;2.10;;;1.45;;
23402;SDS011;11874;48.228;11.684;2023-12-20T04:47:54;1.70;;;0.98;;
23402;SDS011;11874;48.228;11.684;2023-12-20T04:50:22;1.67;;;0.80;;
23402;SDS011;11874;48.228;11.684;2023-12-20T04:52:51;2.35;;;1.00;;
23402;SDS011;11874;48.228;11.684;2023-12-20T04:55:19;1.40;;;1.20;;
23402;SDS011;11874;48.228;11.684;2023-12-20T04:57:49;1.65;;;1.30;;
23402;SDS011;11874;48.228;11.684;2023-12-20T05:00:17;1.35;;;1.10;;
23402;SDS011;11874;48.228;11.684;2023-12-20T05:02:46;1.05;;;0.93;;
23402;SDS011;11874;48.228;11.684;2023-12-20T05:05:14;1.70;;;1.30;;
23402;SDS011;11874;48.228;11.684;2023-12-20T05:07:44;1.73;;;1.20;;
23402;SDS011;11874;48.228;11.684;2023-12-20T05:10:13;2.85;;;1.25;;
23402;SDS011;11874;48.228;11.684;2023-12-20T05:12:41;1.58;;;1.30;;
23402;SDS011;11874;48.228;11.684;2023-12-20T05:15:11;1.73;;;1.45;;
23402;SDS011;11874;48.228;11.684;2023-12-20T05:17:40;2.13;;;1.60;;
23402;SDS011;11874;48.228;11.684;2023-12-20T05:20:08;1.50;;;1.20;;
23402;SDS011;11874;48.228;11.684;2023-12-20T05:22:37;2.15;;;1.60;;
23402;SDS011;11874;48.228;11.684;2023-12-20T05:25:05;3.08;;;1.52;;
23402;SDS011;11874;48.228;11.684;2023-12-20T05:27:33;1.77;;;1.20;;
23402;SDS011;11874;48.228;11.684;2023-12-20T05:30:01;2.22;;;1.50;;
23402;SDS011;11874;48.228;11.684;2023-12-20T05:32:32;2.03;;;1.55;;
23402;SDS011;11874;48.228;11.684;2023-12-20T05:35:03;2.25;;;1.67;;
23402;SDS011;11874;48.228;11.684;2023-12-20T05:37:32;2.33;;;1.77;;
23402;SDS011;11874;48.228;11.684;2023-12-20T05:40:00;1.70;;;1.60;;
23402;SDS011;11874;48.228;11.684;2023-12-20T05:42:29;1.70;;;1.60;;
23402;SDS011;11874;48.228;11.684;2023-12-20T05:44:57;2.30;;;1.80;;
23402;SDS011;11874;48.228;11.684;2023-12-20T05:47:25;2.85;;;2.08;;
23402;SDS011;11874;48.228;11.684;2023-12-20T05:49:55;3.35;;;2.28;;
23402;SDS011;11874;48.228;11.684;2023-12-20T05:52:23;3.85;;;2.35;;
23402;SDS011;11874;48.228;11.684;2023-12-20T05:54:52;3.13;;;2.28;;
23402;SDS011;11874;48.228;11.684;2023-12-20T05:57:20;4.35;;;2.50;;
23402;SDS011;11874;48.228;11.684;2023-12-20T05:59:49;3.55;;;2.30;;
23402;SDS011;11874;48.228;11.684;2023-12-20T06:02:17;2.97;;;2.20;;
23402;SDS011;11874;48.228;11.684;2023-12-20T06:04:46;2.65;;;2.25;;
23402;SDS011;11874;48.228;11.684;2023-12-20T06:07:19;3.17;;;2.13;;
23402;SDS011;11874;48.228;11.684;2023-12-20T06:09:47;2.55;;;1.98;;
23402;SDS011;11874;48.228;11.684;2023-12-20T06:12:15;2.00;;;1.80;;
23402;SDS011;11874;48.228;11.684;2023-12-20T06:14:43;3.00;;;2.15;;
23402;SDS011;11874;48.228;11.684;2023-12-20T06:17:11;6.50;;;2.08;;
23402;SDS011;11874;48.228;11.684;2023-12-20T06:19:39;3.75;;;2.40;;
23402;SDS011;11874;48.228;11.684;2023-12-20T06:22:09;2.78;;;1.90;;
23402;SDS011;11874;48.228;11.684;2023-12-20T06:24:38;3.30;;;2.30;;
23402;SDS011;11874;48.228;11.684;2023-12-20T06:27:07;3.78;;;1.80;;
23402;SDS011;11874;48.228;11.684;2023-12-20T06:29:35;2.88;;;2.00;;
23402;SDS011;11874;48.228;11.684;2023-12-20T06:32:03;2.63;;;1.95;;
23402;SDS011;11874;48.228;11.684;2023-12-20T06:34:32;1.90;;;1.70;;
23402;SDS011;11874;48.228;11.684;2023-12-20T06:37:01;1.75;;;1.45;;
23402;SDS011;11874;48.228;11.684;2023-12-20T06:39:29;2.58;;;2.08;;
23402;SDS011;11874;48.228;11.684;2023-12-20T06:41:59;2.45;;;1.88;;
23402;SDS011;11874;48.228;11.684;2023-12-20T06:44:27;3.08;;;2.10;;
23402;SDS011;11874;48.228;11.684;2023-12-20T06:46:55;3.90;;;2.00;;
23402;SDS011;11874;48.228;11.684;2023-12-20T06:49:23;2.25;;;1.90;;
23402;SDS011;11874;48.228;11.684;2023-12-20T06:51:51;3.35;;;2.25;;
23402;SDS011;11874;48.228;11.684;2023-12-20T06:54:22;2.85;;;2.00;;
23402;SDS011;11874;48.228;11.684;2023-12-20T06:56:50;3.80;;;1.80;;
23402;SDS011;11874;48.228;11.684;2023-12-20T06:59:20;2.50;;;1.85;;
23402;SDS011;11874;48.228;11.684;2023-12-20T07:01:48;2.63;;;1.80;;
23402;SDS011;11874;48.228;11.684;2023-12-20T07:04:16;4.05;;;2.03;;
23402;SDS011;11874;48.228;11.684;2023-12-20T07:06:47;3.58;;;1.80;;
23402;SDS011;11874;48.228;11.684;2023-12-20T07:09:17;2.95;;;1.98;;
23402;SDS011;11874;48.228;11.684;2023-12-20T07:11:46;2.55;;;1.55;;
23402;SDS011;11874;48.228;11.684;2023-12-20T07:14:14;3.33;;;1.65;;
23402;SDS011;11874;48.228;11.684;2023-12-20T07:16:44;2.30;;;1.67;;
23402;SDS011;11874;48.228;11.684;2023-12-20T07:19:12;3.05;;;1.80;;
23402;SDS011;11874;48.228;11.684;2023-12-20T07:21:41;3.10;;;1.80;;
23402;SDS011;11874;48.228;11.684;2023-12-20T07:24:09;1.85;;;1.48;;
23402;SDS011;11874;48.228;11.684;2023-12-20T07:26:37;3.65;;;1.65;;
23402;SDS011;11874;48.228;11.684;2023-12-20T07:29:06;2.25;;;1.77;;
23402;SDS011;11874;48.228;11.684;2023-12-20T07:31:34;1.95;;;1.35;;
23402;SDS011;11874;48.228;11.684;2023-12-20T07:34:04;2.67;;;1.73;;
23402;SDS011;11874;48.228;11.684;2023-12-20T07:36:32;3.80;;;1.35;;
23402;SDS011;11874;48.228;11.684;2023-12-20T07:39:01;2.03;;;1.25;;
23402;SDS011;11874;48.228;11.684;2023-12-20T07:41:29;1.85;;;1.25;;
23402;SDS011;11874;48.228;11.684;2023-12-20T07:43:57;1.58;;;1.25;;
23402;SDS011;11874;48.228;11.684;2023-12-20T07:46:25;2.00;;;1.50;;
23402;SDS011;11874;48.228;11.684;2023-12-20T07:48:53;1.75;;;1.20;;
23402;SDS011;11874;48.228;11.684;2023-12-20T07:51:23;2.22;;;1.30;;
23402;SDS011;11874;48.228;11.684;2023-12-20T07:53:51;1.85;;;1.20;;
23402;SDS011;11874;48.228;11.684;2023-12-20T07:56:20;1.10;;;1.00;;
23402;SDS011;11874;48.228;11.684;2023-12-20T07:58:48;3.83;;;1.60;;
23402;SDS011;11874;48.228;11.684;2023-12-20T08:01:19;2.40;;;1.15;;
23402;SDS011;11874;48.228;11.684;2023-12-20T08:03:48;1.48;;;1.20;;
23402;SDS011;11874;48.228;11.684;2023-12-20T08:06:18;3.65;;;1.23;;
23402;SDS011;11874;48.228;11.684;2023-12-20T08:08:47;1.50;;;0.93;;
23402;SDS011;11874;48.228;11.684;2023-12-20T08:11:27;4.13;;;1.10;;
23402;SDS011;11874;48.228;11.684;2023-12-20T08:13:55;1.35;;;0.90;;
23402;SDS011;11874;48.228;11.684;2023-12-20T08:16:23;0.88;;;0.85;;
23402;SDS011;11874;48.228;11.684;2023-12-20T08:18:51;0.93;;;0.85;;
23402;SDS011;11874;48.228;11.684;2023-12-20T08:21:19;0.70;;;0.70;;
23402;SDS011;11874;48.228;11.684;2023-12-20T08:23:50;0.70;;;0.70;;
23402;SDS011;11874;48.228;11.684;2023-12-20T08:26:19;2.15;;;0.90;;
23402;SDS011;11874;48.228;11.684;2023-12-20T08:28:49;1.02;;;0.60;;
23402;SDS011;11874;48.228;11.684;2023-12-20T08:31:18;0.88;;;0.80;;
23402;SDS011;11874;48.228;11.684;2023-12-20T08:33:46;2.05;;;0.70;;
23402;SDS011;11874;48.228;11.684;2023-12-20T08:36:15;1.50;;;0.93;;
23402;SDS011;11874;48.228;11.684;2023-12-20T08:38:45;1.60;;;0.73;;
23402;SDS011;11874;48.228;11.684;2023-12-20T08:41:15;0.70;;;0.70;;
23402;SDS011;11874;48.228;11.684;2023-12-20T08:43:44;0.70;;;0.70;;
23402;SDS011;11874;48.228;11.684;2023-12-20T08:46:13;1.05;;;0.70;;
23402;SDS011;11874;48.228;11.684;2023-12-20T08:48:42;1.27;;;0.80;;
23402;SDS011;11874;48.228;11.684;2023-12-20T08:51:12;0.90;;;0.85;;
23402;SDS011;11874;48.228;11.684;2023-12-20T08:53:41;0.70;;;0.70;;
23402;SDS011;11874;48.228;11.684;2023-12-20T08:56:12;0.80;;;0.60;;
23402;SDS011;11874;48.228;11.684;2023-12-20T08:58:41;0.80;;;0.80;;
23402;SDS011;11874;48.228;11.684;2023-12-20T09:01:09;0.70;;;0.70;;
23402;SDS011;11874;48.228;11.684;2023-12-20T09:03:37;0.82;;;0.80;;
23402;SDS011;11874;48.228;11.684;2023-12-20T09:06:06;0.80;;;0.80;;
23402;SDS011;11874;48.228;11.684;2023-12-20T09:08:37;1.00;;;0.80;;
23402;SDS011;11874;48.228;11.684;2023-12-20T09:11:06;1.02;;;0.90;;
23402;SDS011;11874;48.228;11.684;2023-12-20T09:13:34;1.40;;;1.08;;
23402;SDS011;11874;48.228;11.684;2023-12-20T09:16:04;0.70;;;0.65;;
23402;SDS011;11874;48.228;11.684;2023-12-20T09:18:33;3.35;;;1.15;;
23402;SDS011;11874;48.228;11.684;2023-12-20T09:21:01;1.27;;;0.80;;
23402;SDS011;11874;48.228;11.684;2023-12-20T09:23:29;0.80;;;0.80;;
23402;SDS011;11874;48.228;11.684;2023-12-20T09:25:57;1.08;;;0.88;;
23402;SDS011;11874;48.228;11.684;2023-12-20T09:28:25;1.23;;;0.90;;
23402;SDS011;11874;48.228;11.684;2023-12-20T09:30:53;1.10;;;0.90;;
23402;SDS011;11874;48.228;11.684;2023-12-20T09:33:23;1.00;;;0.90;;
23402;SDS011;11874;48.228;11.684;2023-12-20T09:35:51;0.88;;;0.73;;
23402;SDS011;11874;48.228;11.684;2023-12-20T09:38:20;0.80;;;0.80;;
23402;SDS011;11874;48.228;11.684;2023-12-20T09:40:48;1.20;;;0.98;;
23402;SDS011;11874;48.228;11.684;2023-12-20T09:43:18;1.08;;;0.82;;
23402;SDS011;11874;48.228;11.684;2023-12-20T09:45:47;1.38;;;1.02;;
23402;SDS011;11874;48.228;11.684;2023-12-20T09:48:22;1.52;;;1.00;;
23402;SDS011;11874;48.228;11.684;2023-12-20T09:50:54;1.92;;;0.90;;
23402;SDS011;11874;48.228;11.684;2023-12-20T09:53:22;1.85;;;1.00;;
23402;SDS011;11874;48.228;11.684;2023-12-20T09:55:55;2.95;;;0.88;;
23402;SDS011;11874;48.228;11.684;2023-12-20T09:58:26;1.73;;;1.10;;
23402;SDS011;11874;48.228;11.684;2023-12-20T10:00:55;0.98;;;0.88;;
23402;SDS011;11874;48.228;11.684;2023-12-20T10:03:25;2.17;;;1.00;;
23402;SDS011;11874;48.228;11.684;2023-12-20T10:05:54;1.23;;;0.85;;
23402;SDS011;11874;48.228;11.684;2023-12-20T10:08:25;1.63;;;1.02;;
23402;SDS011;11874;48.228;11.684;2023-12-20T10:10:54;1.20;;;1.05;;
23402;SDS011;11874;48.228;11.684;2023-12-20T10:13:24;1.92;;;0.98;;
23402;SDS011;11874;48.228;11.684;2023-12-20T10:15:54;2.85;;;0.82;;
23402;SDS011;11874;48.228;11.684;2023-12-20T10:18:23;2.33;;;1.10;;
23402;SDS011;11874;48.228;11.684;2023-12-20T10:21:05;1.35;;;1.15;;
23402;SDS011;11874;48.228;11.684;2023-12-20T10:23:33;1.25;;;1.00;;
23402;SDS011;11874;48.228;11.684;2023-12-20T10:26:02;1.90;;;1.50;;
23402;SDS011;11874;48.228;11.684;2023-12-20T10:28:32;1.08;;;0.98;;
23402;SDS011;11874;48.228;11.684;2023-12-20T10:31:02;2.30;;;1.27;;
23402;SDS011;11874;48.228;11.684;2023-12-20T10:33:31;1.08;;;0.70;;
23402;SDS011;11874;48.228;11.684;2023-12-20T10:36:00;3.10;;;1.20;;
23402;SDS011;11874;48.228;11.684;2023-12-20T10:38:29;1.25;;;1.15;;
23402;SDS011;11874;48.228;11.684;2023-12-20T10:40:57;1.17;;;1.05;;
23402;SDS011;11874;48.228;11.684;2023-12-20T10:43:26;1.52;;;1.20;;
23402;SDS011;11874;48.228;11.684;2023-12-20T10:45:57;3.33;;;1.20;;
23402;SDS011;11874;48.228;11.684;2023-12-20T10:48:27;1.35;;;1.20;;
23402;SDS011;11874;48.228;11.684;2023-12-20T10:50:59;1.98;;;1.10;;
23402;SDS011;11874;48.228;11.684;2023-12-20T10:53:29;0.80;;;0.73;;
23402;SDS011;11874;48.228;11.684;2023-12-20T10:56:00;1.00;;;0.90;;
23402;SDS011;11874;48.228;11.684;2023-12-20T10:58:30;1.50;;;1.02;;
23402;SDS011;11874;48.228;11.684;2023-12-20T11:01:01;1.10;;;1.00;;
23402;SDS011;11874;48.228;11.684;2023-12-20T11:03:30;1.20;;;1.10;;
23402;SDS011;11874;48.228;11.684;2023-12-20T11:06:05;1.25;;;1.00;;
23402;SDS011;11874;48.228;11.684;2023-12-20T11:08:44;1.00;;;0.80;;
23402;SDS011;11874;48.228;11.684;2023-12-20T11:11:20;1.55;;;0.90;;
23402;SDS011;11874;48.228;11.684;2023-12-20T11:14:00;1.30;;;1.20;;
23402;SDS011;11874;48.228;11.684;2023-12-20T11:16:31;1.33;;;1.10;;
23402;SDS011;11874;48.228;11.684;2023-12-20T11:19:13;1.35;;;1.10;;
23402;SDS011;11874;48.228;11.684;2023-12-20T11:21:43;1.02;;;0.95;;
23402;SDS011;11874;48.228;11.684;2023-12-20T11:24:15;0.90;;;0.80;;
23402;SDS011;11874;48.228;11.684;2023-12-20T11:26:46;1.15;;;0.82;;
23402;SDS011;11874;48.228;11.684;2023-12-20T11:29:29;1.13;;;1.02;;
23402;SDS011;11874;48.228;11.684;2023-12-20T11:32:00;1.38;;;1.13;;
23402;SDS011;11874;48.228;11.684;2023-12-20T11:34:31;0.93;;;0.80;;
23402;SDS011;11874;48.228;11.684;2023-12-20T11:37:05;2.25;;;1.08;;
23402;SDS011;11874;48.228;11.684;2023-12-20T11:39:33;1.10;;;1.00;;
23402;SDS011;11874;48.228;11.684;2023-12-20T11:42:04;1.52;;;1.02;;
23402;SDS011;11874;48.228;11.684;2023-12-20T11:44:32;1.00;;;1.00;;
23402;SDS011;11874;48.228;11.684;2023-12-20T11:47:00;1.85;;;1.10;;
23402;SDS011;11874;48.228;11.684;2023-12-20T11:49:28;0.80;;;0.77;;
23402;SDS011;11874;48.228;11.684;2023-12-20T11:51:58;1.10;;;1.00;;
23402;SDS011;11874;48.228;11.684;2023-12-20T11:54:29;1.25;;;1.05;;
23402;SDS011;11874;48.228;11.684;2023-12-20T11:57:00;1.35;;;1.10;;
23402;SDS011;11874;48.228;11.684;2023-12-20T11:59:30;1.08;;;0.98;;
23402;SDS011;11874;48.228;11.684;2023-12-20T12:01:59;1.38;;;1.20;;
23402;SDS011;11874;48.228;11.684;2023-12-20T12:04:28;1.23;;;1.00;;
23402;SDS011;11874;48.228;11.684;2023-12-20T12:06:58;1.10;;;0.90;;
23402;SDS011;11874;48.228;11.684;2023-12-20T12:09:31;1.73;;;1.20;;
23402;SDS011;11874;48.228;11.684;2023-12-20T12:11:59;0.88;;;0.88;;
23402;SDS011;11874;48.228;11.684;2023-12-20T12:14:30;1.17;;;1.08;;
23402;SDS011;11874;48.228;11.684;2023-12-20T12:16:59;1.23;;;1.08;;
23402;SDS011;11874;48.228;11.684;2023-12-20T12:19:27;1.55;;;1.30;;
23402;SDS011;11874;48.228;11.684;2023-12-20T12:22:04;1.73;;;1.27;;
23402;SDS011;11874;48.228;11.684;2023-12-20T12:24:35;2.40;;;1.20;;
23402;SDS011;11874;48.228;11.684;2023-12-20T12:27:05;1.20;;;0.93;;
23402;SDS011;11874;48.228;11.684;2023-12-20T12:29:35;0.90;;;0.73;;
23402;SDS011;11874;48.228;11.684;2023-12-20T12:32:05;1.17;;;0.98;;
23402;SDS011;11874;48.228;11.684;2023-12-20T12:34:35;1.10;;;1.00;;
23402;SDS011;11874;48.228;11.684;2023-12-20T12:37:04;1.35;;;1.25;;
23402;SDS011;11874;48.228;11.684;2023-12-20T12:39:32;1.08;;;0.98;;
23402;SDS011;11874;48.228;11.684;2023-12-20T12:42:02;1.00;;;0.93;;
23402;SDS011;11874;48.228;11.684;2023-12-20T12:44:31;2.30;;;1.10;;
23402;SDS011;11874;48.228;11.684;2023-12-20T12:46:59;1.58;;;1.10;;
23402;SDS011;11874;48.228;11.684;2023-12-20T12:49:30;1.13;;;1.02;;
23402;SDS011;11874;48.228;11.684;2023-12-20T12:51:59;1.00;;;0.90;;
23402;SDS011;11874;48.228;11.684;2023-12-20T12:54:27;1.25;;;1.15;;
23402;SDS011;11874;48.228;11.684;2023-12-20T12:56:55;0.98;;;0.80;;
23402;SDS011;11874;48.228;11.684;2023-12-20T12:59:26;3.25;;;1.40;;
23402;SDS011;11874;48.228;11.684;2023-12-20T13:01:54;1.38;;;1.17;;
23402;SDS011;11874;48.228;11.684;2023-12-20T13:04:22;1.60;;;1.30;;
23402;SDS011;11874;48.228;11.684;2023-12-20T13:06:50;1.25;;;1.10;;
23402;SDS011;11874;48.228;11.684;2023-12-20T13:09:19;1.52;;;0.90;;
23402;SDS011;11874;48.228;11.684;2023-12-20T13:11:48;1.63;;;1.30;;
23402;SDS011;11874;48.228;11.684;2023-12-20T13:14:19;2.60;;;1.10;;
23402;SDS011;11874;48.228;11.684;2023-12-20T13:16:48;2.15;;;0.90;;
23402;SDS011;11874;48.228;11.684;2023-12-20T13:19:17;2.67;;;1.20;;
23402;SDS011;11874;48.228;11.684;2023-12-20T13:21:45;1.77;;;0.93;;
23402;SDS011;11874;48.228;11.684;2023-12-20T13:24:17;1.15;;;1.00;;
23402;SDS011;11874;48.228;11.684;2023-12-20T13:26:47;1.67;;;1.17;;
23402;SDS011;11874;48.228;11.684;2023-12-20T13:29:15;2.05;;;1.25;;
23402;SDS011;11874;48.228;11.684;2023-12-20T13:31:43;1.92;;;1.20;;
23402;SDS011;11874;48.228;11.684;2023-12-20T13:34:13;1.55;;;1.23;;
23402;SDS011;11874;48.228;11.684;2023-12-20T13:36:43;1.60;;;1.10;;
23402;SDS011;11874;48.228;11.684;2023-12-20T13:39:14;1.52;;;1.23;;
23402;SDS011;11874;48.228;11.684;2023-12-20T13:41:42;1.58;;;1.33;;
23402;SDS011;11874;48.228;11.684;2023-12-20T13:44:14;3.30;;;1.25;;
23402;SDS011;11874;48.228;11.684;2023-12-20T13:46:42;1.98;;;1.33;;
23402;SDS011;11874;48.228;11.684;2023-12-20T13:49:18;1.70;;;1.33;;
23402;SDS011;11874;48.228;11.684;2023-12-20T13:51:47;2.67;;;1.55;;
23402;SDS011;11874;48.228;11.684;2023-12-20T13:54:15;1.33;;;1.17;;
23402;SDS011;11874;48.228;11.684;2023-12-20T13:56:46;1.63;;;1.20;;
23402;SDS011;11874;48.228;11.684;2023-12-20T13:59:32;1.98;;;1.20;;
23402;SDS011;11874;48.228;11.684;2023-12-20T14:02:01;1.50;;;1.00;;
23402;SDS011;11874;48.228;11.684;2023-12-20T14:04:32;4.00;;;1.40;;
23402;SDS011;11874;48.228;11.684;2023-12-20T14:07:08;2.00;;;1.20;;
23402;SDS011;11874;48.228;11.684;2023-12-20T14:09:38;2.53;;;1.35;;
23402;SDS011;11874;48.228;11.684;2023-12-20T14:12:13;1.10;;;1.00;;
23402;SDS011;11874;48.228;11.684;2023-12-20T14:14:41;3.08;;;1.30;;
23402;SDS011;11874;48.228;11.684;2023-12-20T14:17:12;1.85;;;1.08;;
23402;SDS011;11874;48.228;11.684;2023-12-20T14:19:42;1.52;;;1.08;;
23402;SDS011;11874;48.228;11.684;2023-12-20T14:22:10;3.00;;;1.30;;
23402;SDS011;11874;48.228;11.684;2023-12-20T14:24:40;2.63;;;1.10;;
23402;SDS011;11874;48.228;11.684;2023-12-20T14:27:10;2.55;;;1.30;;
23402;SDS011;11874;48.228;11.684;2023-12-20T14:29:39;5.88;;;2.35;;
23402;SDS011;11874;48.228;11.684;2023-12-20T14:32:07;1.40;;;1.30;;
23402;SDS011;11874;48.228;11.684;2023-12-20T14:34:35;3.15;;;1.10;;
23402;SDS011;11874;48.228;11.684;2023-12-20T14:37:06;4.30;;;1.40;;
23402;SDS011;11874;48.228;11.684;2023-12-20T14:39:35;3.05;;;1.17;;
23402;SDS011;11874;48.228;11.684;2023-12-20T14:42:05;3.42;;;1.40;;
23402;SDS011;11874;48.228;11.684;2023-12-20T14:44:42;4.65;;;1.20;;
23402;SDS011;11874;48.228;11.684;2023-12-20T14:47:11;2.20;;;1.35;;